sensor_id;sensor_type;location;lat;lon;timestamp;pressure;altitude;pressure_sealevel;temperature;humidity
67457;BME280;54319;52.038;4.640;2022-07-24T00:02:20;101990.38;;;17.68;80.90
67457;BME280;54319;52.038;4.640;2022-07-24T00:04:47;101992.19;;;17.65;80.98
67457;BME280;54319;52.038;4.640;2022-07-24T00:07:14;101988.69;;;17.63;81.10
67457;BME280;54319;52.038;4.640;2022-07-24T00:09:41;101996.75;;;17.60;81.20
67457;BME280;54319;52.038;4.640;2022-07-24T00:12:10;101989.72;;;17.57;81.16
67457;BME280;54319;52.038;4.640;2022-07-24T00:14:36;101993.34;;;17.53;81.40
67457;BME280;54319;52.038;4.640;2022-07-24T00:17:03;101981.94;;;17.49;81.62
67457;BME280;54319;52.038;4.640;2022-07-24T00:19:30;101980.22;;;17.47;81.88
67457;BME280;54319;52.038;4.640;2022-07-24T00:21:57;101975.88;;;17.44;82.24
67457;BME280;54319;52.038;4.640;2022-07-24T00:24:25;101973.31;;;17.41;82.11
67457;BME280;54319;52.038;4.640;2022-07-24T00:26:52;101977.81;;;17.36;82.75
67457;BME280;54319;52.038;4.640;2022-07-24T00:29:20;101977.88;;;17.33;82.29
67457;BME280;54319;52.038;4.640;2022-07-24T00:31:47;101985.88;;;17.30;82.77
67457;BME280;54319;52.038;4.640;2022-07-24T00:34:14;101988.59;;;17.28;82.65
67457;BME280;54319;52.038;4.640;2022-07-24T00:36:41;101985.97;;;17.25;82.57
67457;BME280;54319;52.038;4.640;2022-07-24T00:39:10;101988.69;;;17.24;82.68
67457;BME280;54319;52.038;4.640;2022-07-24T00:41:38;101985.19;;;17.22;83.01
67457;BME280;54319;52.038;4.640;2022-07-24T00:44:05;101990.53;;;17.19;83.99
67457;BME280;54319;52.038;4.640;2022-07-24T00:46:34;101993.19;;;17.19;84.02
67457;BME280;54319;52.038;4.640;2022-07-24T00:49:04;101988.78;;;17.19;83.79
67457;BME280;54319;52.038;4.640;2022-07-24T00:51:31;101987.00;;;17.20;84.17
67457;BME280;54319;52.038;4.640;2022-07-24T00:53:58;101984.28;;;17.23;84.23
67457;BME280;54319;52.038;4.640;2022-07-24T00:56:25;101975.44;;;17.24;84.00
67457;BME280;54319;52.038;4.640;2022-07-24T00:58:52;101977.25;;;17.20;83.67
67457;BME280;54319;52.038;4.640;2022-07-24T01:01:19;101975.47;;;17.21;83.79
67457;BME280;54319;52.038;4.640;2022-07-24T01:03:47;101979.94;;;17.19;83.80
67457;BME280;54319;52.038;4.640;2022-07-24T01:06:14;101983.47;;;17.19;84.07
67457;BME280;54319;52.038;4.640;2022-07-24T01:08:42;101977.25;;;17.20;83.70
67457;BME280;54319;52.038;4.640;2022-07-24T01:11:09;101980.69;;;17.25;83.64
67457;BME280;54319;52.038;4.640;2022-07-24T01:13:38;101984.16;;;17.27;83.68
67457;BME280;54319;52.038;4.640;2022-07-24T01:16:05;101973.56;;;17.27;83.23
67457;BME280;54319;52.038;4.640;2022-07-24T01:18:33;101964.75;;;17.28;82.99
67457;BME280;54319;52.038;4.640;2022-07-24T01:21:02;101966.47;;;17.29;82.64
67457;BME280;54319;52.038;4.640;2022-07-24T01:23:30;101955.88;;;17.29;82.48
67457;BME280;54319;52.038;4.640;2022-07-24T01:25:57;101954.16;;;17.28;82.68
67457;BME280;54319;52.038;4.640;2022-07-24T01:28:24;101956.81;;;17.27;82.34
67457;BME280;54319;52.038;4.640;2022-07-24T01:30:50;101957.75;;;17.26;82.66
67457;BME280;54319;52.038;4.640;2022-07-24T01:33:18;101958.63;;;17.25;82.66
67457;BME280;54319;52.038;4.640;2022-07-24T01:35:44;101953.31;;;17.25;82.59
67457;BME280;54319;52.038;4.640;2022-07-24T01:38:13;101959.59;;;17.21;82.89
67457;BME280;54319;52.038;4.640;2022-07-24T01:40:41;101961.38;;;17.20;82.79
67457;BME280;54319;52.038;4.640;2022-07-24T01:43:08;101961.41;;;17.19;83.08
67457;BME280;54319;52.038;4.640;2022-07-24T01:45:35;101970.25;;;17.18;83.19
67457;BME280;54319;52.038;4.640;2022-07-24T01:48:02;101964.16;;;17.14;83.64
67457;BME280;54319;52.038;4.640;2022-07-24T01:50:29;101958.94;;;17.11;83.80
67457;BME280;54319;52.038;4.640;2022-07-24T01:52:57;101954.56;;;17.08;83.64
67457;BME280;54319;52.038;4.640;2022-07-24T01:55:28;101956.38;;;17.06;83.80
67457;BME280;54319;52.038;4.640;2022-07-24T01:57:55;101956.38;;;17.06;84.12
67457;BME280;54319;52.038;4.640;2022-07-24T02:00:22;101959.97;;;17.04;83.99
67457;BME280;54319;52.038;4.640;2022-07-24T02:02:50;101952.03;;;17.02;83.94
67457;BME280;54319;52.038;4.640;2022-07-24T02:05:16;101949.44;;;16.99;83.91
67457;BME280;54319;52.038;4.640;2022-07-24T02:07:44;101949.50;;;16.98;84.31
67457;BME280;54319;52.038;4.640;2022-07-24T02:10:13;101948.66;;;16.94;84.42
67457;BME280;54319;52.038;4.640;2022-07-24T02:12:41;101944.31;;;16.91;84.33
67457;BME280;54319;52.038;4.640;2022-07-24T02:15:09;101943.50;;;16.88;84.29
67457;BME280;54319;52.038;4.640;2022-07-24T02:17:36;101943.53;;;16.86;84.72
67457;BME280;54319;52.038;4.640;2022-07-24T02:20:04;101940.06;;;16.83;84.66
67457;BME280;54319;52.038;4.640;2022-07-24T02:22:31;101935.69;;;16.82;84.96
67457;BME280;54319;52.038;4.640;2022-07-24T02:25:00;101931.22;;;16.84;85.02
67457;BME280;54319;52.038;4.640;2022-07-24T02:27:27;101930.31;;;16.85;85.35
67457;BME280;54319;52.038;4.640;2022-07-24T02:29:55;101929.41;;;16.86;85.55
67457;BME280;54319;52.038;4.640;2022-07-24T02:32:22;101934.66;;;16.89;85.24
67457;BME280;54319;52.038;4.640;2022-07-24T02:34:50;101932.03;;;16.87;85.41
67457;BME280;54319;52.038;4.640;2022-07-24T02:37:17;101932.09;;;16.84;85.61
67457;BME280;54319;52.038;4.640;2022-07-24T02:39:43;101918.91;;;16.83;85.50
67457;BME280;54319;52.038;4.640;2022-07-24T02:42:11;101927.75;;;16.82;85.51
67457;BME280;54319;52.038;4.640;2022-07-24T02:44:37;101924.25;;;16.80;85.65
67457;BME280;54319;52.038;4.640;2022-07-24T02:47:06;101921.59;;;16.78;85.32
67457;BME280;54319;52.038;4.640;2022-07-24T02:49:33;101925.13;;;16.77;85.67
67457;BME280;54319;52.038;4.640;2022-07-24T02:52:01;101917.25;;;16.76;85.67
67457;BME280;54319;52.038;4.640;2022-07-24T02:54:27;101917.25;;;16.76;86.20
67457;BME280;54319;52.038;4.640;2022-07-24T02:56:55;101911.06;;;16.75;85.79
67457;BME280;54319;52.038;4.640;2022-07-24T02:59:22;101912.91;;;16.73;86.14
67457;BME280;54319;52.038;4.640;2022-07-24T03:01:48;101908.50;;;16.70;86.43
67457;BME280;54319;52.038;4.640;2022-07-24T03:04:16;101897.88;;;16.74;86.38
67457;BME280;54319;52.038;4.640;2022-07-24T03:06:43;101904.91;;;16.75;86.41
67457;BME280;54319;52.038;4.640;2022-07-24T03:09:10;101904.03;;;16.74;86.63
67457;BME280;54319;52.038;4.640;2022-07-24T03:11:37;101895.22;;;16.74;86.12
67457;BME280;54319;52.038;4.640;2022-07-24T03:14:03;101890.81;;;16.74;85.74
67457;BME280;54319;52.038;4.640;2022-07-24T03:16:30;101890.81;;;16.73;85.79
67457;BME280;54319;52.038;4.640;2022-07-24T03:18:58;101889.09;;;16.71;85.29
67457;BME280;54319;52.038;4.640;2022-07-24T03:21:26;101890.81;;;16.74;84.97
67457;BME280;54319;52.038;4.640;2022-07-24T03:23:54;101888.19;;;16.73;84.74
67457;BME280;54319;52.038;4.640;2022-07-24T03:26:20;101888.22;;;16.71;84.61
67457;BME280;54319;52.038;4.640;2022-07-24T03:28:47;101882.03;;;16.70;84.56
67457;BME280;54319;52.038;4.640;2022-07-24T03:31:14;101881.19;;;16.68;84.23
67457;BME280;54319;52.038;4.640;2022-07-24T03:33:41;101877.78;;;16.63;83.88
67457;BME280;54319;52.038;4.640;2022-07-24T03:36:08;101879.56;;;16.63;83.80
67457;BME280;54319;52.038;4.640;2022-07-24T03:38:37;101883.16;;;16.59;83.93
67457;BME280;54319;52.038;4.640;2022-07-24T03:41:04;101875.31;;;16.54;83.74
67457;BME280;54319;52.038;4.640;2022-07-24T03:43:31;101881.56;;;16.52;83.80
67457;BME280;54319;52.038;4.640;2022-07-24T03:45:57;101881.56;;;16.52;83.62
67457;BME280;54319;52.038;4.640;2022-07-24T03:48:24;101888.63;;;16.51;83.96
67457;BME280;54319;52.038;4.640;2022-07-24T03:50:51;101880.63;;;16.54;83.60
67457;BME280;54319;52.038;4.640;2022-07-24T03:53:18;101889.41;;;16.56;83.53
67457;BME280;54319;52.038;4.640;2022-07-24T03:55:46;101890.34;;;16.54;84.29
67457;BME280;54319;52.038;4.640;2022-07-24T03:58:13;101900.03;;;16.53;84.20
67457;BME280;54319;52.038;4.640;2022-07-24T04:00:40;101892.97;;;16.54;83.77
67457;BME280;54319;52.038;4.640;2022-07-24T04:03:07;101896.50;;;16.54;83.68
67457;BME280;54319;52.038;4.640;2022-07-24T04:05:34;101895.66;;;16.50;83.78
67457;BME280;54319;52.038;4.640;2022-07-24T04:08:02;101892.25;;;16.45;83.88
67457;BME280;54319;52.038;4.640;2022-07-24T04:10:29;101887.91;;;16.43;84.04
67457;BME280;54319;52.038;4.640;2022-07-24T04:12:57;101891.41;;;16.42;84.69
67457;BME280;54319;52.038;4.640;2022-07-24T04:15:24;101892.22;;;16.47;84.72
67457;BME280;54319;52.038;4.640;2022-07-24T04:17:51;101881.69;;;16.44;84.87
67457;BME280;54319;52.038;4.640;2022-07-24T04:20:18;101878.16;;;16.45;84.69
67457;BME280;54319;52.038;4.640;2022-07-24T04:22:45;101884.28;;;16.47;84.61
67457;BME280;54319;52.038;4.640;2022-07-24T04:25:12;101878.19;;;16.43;84.66
67457;BME280;54319;52.038;4.640;2022-07-24T04:27:39;101874.63;;;16.44;84.98
67457;BME280;54319;52.038;4.640;2022-07-24T04:30:08;101875.44;;;16.48;84.71
67457;BME280;54319;52.038;4.640;2022-07-24T04:32:35;101878.09;;;16.48;84.86
67457;BME280;54319;52.038;4.640;2022-07-24T04:35:02;101878.00;;;16.53;84.14
67457;BME280;54319;52.038;4.640;2022-07-24T04:37:29;101880.53;;;16.57;83.73
67457;BME280;54319;52.038;4.640;2022-07-24T04:39:56;101880.50;;;16.60;83.17
67457;BME280;54319;52.038;4.640;2022-07-24T04:42:23;101887.63;;;16.57;83.31
67457;BME280;54319;52.038;4.640;2022-07-24T04:44:50;101885.88;;;16.56;83.67
67457;BME280;54319;52.038;4.640;2022-07-24T04:47:20;101888.53;;;16.56;83.42
67457;BME280;54319;52.038;4.640;2022-07-24T04:49:47;101889.41;;;16.55;83.19
67457;BME280;54319;52.038;4.640;2022-07-24T04:52:14;101893.69;;;16.62;83.09
67457;BME280;54319;52.038;4.640;2022-07-24T04:54:41;101887.53;;;16.61;82.78
67457;BME280;54319;52.038;4.640;2022-07-24T04:57:08;101886.44;;;16.71;81.66
67457;BME280;54319;52.038;4.640;2022-07-24T04:59:35;101889.88;;;16.75;81.49
67457;BME280;54319;52.038;4.640;2022-07-24T05:02:01;101893.44;;;16.74;81.40
67457;BME280;54319;52.038;4.640;2022-07-24T05:04:29;101897.00;;;16.73;81.72
67457;BME280;54319;52.038;4.640;2022-07-24T05:06:59;101902.31;;;16.71;82.22
67457;BME280;54319;52.038;4.640;2022-07-24T05:09:26;101904.13;;;16.71;81.95
67457;BME280;54319;52.038;4.640;2022-07-24T05:11:53;101899.69;;;16.71;82.05
67457;BME280;54319;52.038;4.640;2022-07-24T05:14:20;101895.19;;;16.75;82.24
67457;BME280;54319;52.038;4.640;2022-07-24T05:16:48;101896.84;;;16.82;81.47
67457;BME280;54319;52.038;4.640;2022-07-24T05:19:14;101893.28;;;16.85;81.86
67457;BME280;54319;52.038;4.640;2022-07-24T05:21:42;101890.41;;;16.96;81.05
67457;BME280;54319;52.038;4.640;2022-07-24T05:24:09;101893.81;;;17.01;81.35
67457;BME280;54319;52.038;4.640;2022-07-24T05:26:36;101909.59;;;17.05;81.17
67457;BME280;54319;52.038;4.640;2022-07-24T05:29:04;101903.28;;;17.13;81.32
67457;BME280;54319;52.038;4.640;2022-07-24T05:31:31;101911.25;;;17.11;82.14
67457;BME280;54319;52.038;4.640;2022-07-24T05:33:59;101920.00;;;17.15;82.13
67457;BME280;54319;52.038;4.640;2022-07-24T05:36:27;101931.50;;;17.14;82.66
67457;BME280;54319;52.038;4.640;2022-07-24T05:38:56;101918.13;;;17.20;82.61
67457;BME280;54319;52.038;4.640;2022-07-24T05:41:22;101924.94;;;17.30;82.41
67457;BME280;54319;52.038;4.640;2022-07-24T05:43:50;101915.91;;;17.40;82.11
67457;BME280;54319;52.038;4.640;2022-07-24T05:46:17;101918.44;;;17.45;82.23
67457;BME280;54319;52.038;4.640;2022-07-24T05:48:44;101918.28;;;17.52;81.91
67457;BME280;54319;52.038;4.640;2022-07-24T05:51:11;101911.94;;;17.60;81.32
67457;BME280;54319;52.038;4.640;2022-07-24T05:53:39;101920.63;;;17.65;81.63
67457;BME280;54319;52.038;4.640;2022-07-24T05:56:07;101920.34;;;17.77;80.85
67457;BME280;54319;52.038;4.640;2022-07-24T05:58:35;101919.22;;;17.89;80.71
67457;BME280;54319;52.038;4.640;2022-07-24T06:01:01;101914.19;;;18.14;79.34
67457;BME280;54319;52.038;4.640;2022-07-24T06:03:28;101917.41;;;18.25;78.84
67457;BME280;54319;52.038;4.640;2022-07-24T06:05:55;101916.09;;;18.42;77.62
67457;BME280;54319;52.038;4.640;2022-07-24T06:08:22;101913.16;;;18.52;76.80
67457;BME280;54319;52.038;4.640;2022-07-24T06:10:48;101908.22;;;18.71;75.93
67457;BME280;54319;52.038;4.640;2022-07-24T06:13:17;101900.81;;;18.84;75.68
67457;BME280;54319;52.038;4.640;2022-07-24T06:15:44;101907.44;;;18.99;74.84
67457;BME280;54319;52.038;4.640;2022-07-24T06:18:11;101915.41;;;18.99;74.91
67457;BME280;54319;52.038;4.640;2022-07-24T06:20:37;101904.41;;;19.11;73.84
67457;BME280;54319;52.038;4.640;2022-07-24T06:23:04;101908.44;;;19.25;71.94
67457;BME280;54319;52.038;4.640;2022-07-24T06:25:31;101903.25;;;19.22;72.39
67457;BME280;54319;52.038;4.640;2022-07-24T06:27:59;101902.22;;;19.26;72.17
67457;BME280;54319;52.038;4.640;2022-07-24T06:30:28;101913.59;;;19.31;71.85
67457;BME280;54319;52.038;4.640;2022-07-24T06:32:58;101917.75;;;19.40;70.96
67457;BME280;54319;52.038;4.640;2022-07-24T06:35:26;101924.53;;;19.50;70.52
67457;BME280;54319;52.038;4.640;2022-07-24T06:37:53;101932.09;;;19.62;70.22
67457;BME280;54319;52.038;4.640;2022-07-24T06:40:20;101924.88;;;19.67;68.39
67457;BME280;54319;52.038;4.640;2022-07-24T06:42:48;101917.22;;;19.85;67.94
67457;BME280;54319;52.038;4.640;2022-07-24T06:45:14;101905.47;;;19.92;67.50
67457;BME280;54319;52.038;4.640;2022-07-24T06:47:43;101909.69;;;19.97;67.01
67457;BME280;54319;52.038;4.640;2022-07-24T06:50:10;101919.91;;;20.11;67.34
67457;BME280;54319;52.038;4.640;2022-07-24T06:52:38;101921.25;;;20.23;67.39
67457;BME280;54319;52.038;4.640;2022-07-24T06:55:06;101919.91;;;20.36;67.19
67457;BME280;54319;52.038;4.640;2022-07-24T06:57:34;101906.44;;;20.41;66.44
67457;BME280;54319;52.038;4.640;2022-07-24T07:00:00;101911.72;;;20.43;65.91
67457;BME280;54319;52.038;4.640;2022-07-24T07:02:27;101920.69;;;20.40;66.78
67457;BME280;54319;52.038;4.640;2022-07-24T07:04:55;101908.09;;;20.44;65.97
67457;BME280;54319;52.038;4.640;2022-07-24T07:07:22;101914.25;;;20.46;66.11
67457;BME280;54319;52.038;4.640;2022-07-24T07:09:49;101910.78;;;20.44;66.15
67457;BME280;54319;52.038;4.640;2022-07-24T07:12:17;101918.97;;;20.37;65.62
67457;BME280;54319;52.038;4.640;2022-07-24T07:14:43;101913.22;;;20.50;65.60
67457;BME280;54319;52.038;4.640;2022-07-24T07:17:11;101910.84;;;20.67;65.77
67457;BME280;54319;52.038;4.640;2022-07-24T07:19:37;101908.63;;;20.80;64.77
67457;BME280;54319;52.038;4.640;2022-07-24T07:22:06;101910.97;;;21.11;64.17
67457;BME280;54319;52.038;4.640;2022-07-24T07:24:33;101915.16;;;21.64;61.32
67457;BME280;54319;52.038;4.640;2022-07-24T07:27:00;101909.84;;;22.07;60.22
67457;BME280;54319;52.038;4.640;2022-07-24T07:29:27;101922.28;;;22.28;59.55
67457;BME280;54319;52.038;4.640;2022-07-24T07:31:54;101916.16;;;23.25;56.82
67457;BME280;54319;52.038;4.640;2022-07-24T07:34:21;101916.00;;;23.84;54.46
67457;BME280;54319;52.038;4.640;2022-07-24T07:36:49;101918.97;;;24.14;53.05
67457;BME280;54319;52.038;4.640;2022-07-24T07:39:17;101918.41;;;24.25;52.68
67457;BME280;54319;52.038;4.640;2022-07-24T07:41:44;101925.72;;;24.04;52.46
67457;BME280;54319;52.038;4.640;2022-07-24T07:44:10;101921.75;;;23.76;53.13
67457;BME280;54319;52.038;4.640;2022-07-24T07:46:37;101920.81;;;23.77;53.38
67457;BME280;54319;52.038;4.640;2022-07-24T07:49:04;101912.59;;;24.52;52.20
67457;BME280;54319;52.038;4.640;2022-07-24T07:51:31;101913.75;;;25.12;50.66
67457;BME280;54319;52.038;4.640;2022-07-24T07:53:58;101906.03;;;25.86;48.47
67457;BME280;54319;52.038;4.640;2022-07-24T07:56:26;101897.91;;;26.62;46.87
67457;BME280;54319;52.038;4.640;2022-07-24T07:58:55;101895.94;;;26.05;46.66
67457;BME280;54319;52.038;4.640;2022-07-24T08:01:23;101905.44;;;25.81;47.70
67457;BME280;54319;52.038;4.640;2022-07-24T08:03:50;101912.44;;;25.83;47.44
67457;BME280;54319;52.038;4.640;2022-07-24T08:06:17;101895.47;;;25.99;47.45
67457;BME280;54319;52.038;4.640;2022-07-24T08:08:44;101893.59;;;25.53;48.40
67457;BME280;54319;52.038;4.640;2022-07-24T08:11:12;101887.50;;;25.19;49.03
67457;BME280;54319;52.038;4.640;2022-07-24T08:13:41;101899.03;;;24.88;49.14
67457;BME280;54319;52.038;4.640;2022-07-24T08:16:08;101887.75;;;25.30;48.89
67457;BME280;54319;52.038;4.640;2022-07-24T08:18:35;101889.66;;;25.28;47.46
67457;BME280;54319;52.038;4.640;2022-07-24T08:21:02;101891.25;;;25.15;48.17
67457;BME280;54319;52.038;4.640;2022-07-24T08:23:29;101893.88;;;25.32;47.21
67457;BME280;54319;52.038;4.640;2022-07-24T08:25:56;101892.56;;;25.71;46.87
67457;BME280;54319;52.038;4.640;2022-07-24T08:28:23;101886.75;;;26.97;44.37
67457;BME280;54319;52.038;4.640;2022-07-24T08:30:51;101893.47;;;27.46;43.05
67457;BME280;54319;52.038;4.640;2022-07-24T08:33:19;101897.47;;;28.07;40.86
67457;BME280;54319;52.038;4.640;2022-07-24T08:35:46;101893.81;;;28.47;40.86
67457;BME280;54319;52.038;4.640;2022-07-24T08:38:13;101893.91;;;28.96;39.59
67457;BME280;54319;52.038;4.640;2022-07-24T08:40:40;101903.75;;;28.33;39.56
67457;BME280;54319;52.038;4.640;2022-07-24T08:43:09;101892.34;;;27.90;40.69
67457;BME280;54319;52.038;4.640;2022-07-24T08:45:37;101903.56;;;27.42;41.62
67457;BME280;54319;52.038;4.640;2022-07-24T08:48:08;101885.75;;;26.41;43.91
67457;BME280;54319;52.038;4.640;2022-07-24T08:50:36;101877.72;;;25.80;44.14
67457;BME280;54319;52.038;4.640;2022-07-24T08:53:04;101889.72;;;25.59;45.46
67457;BME280;54319;52.038;4.640;2022-07-24T08:55:32;101879.34;;;25.37;46.72
67457;BME280;54319;52.038;4.640;2022-07-24T08:58:00;101878.41;;;25.22;46.01
67457;BME280;54319;52.038;4.640;2022-07-24T09:00:28;101890.28;;;25.00;46.78
67457;BME280;54319;52.038;4.640;2022-07-24T09:02:55;101879.38;;;24.87;47.56
67457;BME280;54319;52.038;4.640;2022-07-24T09:05:23;101886.03;;;24.80;47.76
67457;BME280;54319;52.038;4.640;2022-07-24T09:08:05;101884.13;;;24.82;48.48
67457;BME280;54319;52.038;4.640;2022-07-24T09:10:33;101882.88;;;25.05;47.36
67457;BME280;54319;52.038;4.640;2022-07-24T09:13:12;101873.28;;;25.17;47.53
67457;BME280;54319;52.038;4.640;2022-07-24T09:15:44;101878.66;;;25.33;47.15
67457;BME280;54319;52.038;4.640;2022-07-24T09:18:25;101877.22;;;25.27;46.98
67457;BME280;54319;52.038;4.640;2022-07-24T09:20:54;101874.06;;;25.35;46.75
67457;BME280;54319;52.038;4.640;2022-07-24T09:23:21;101876.84;;;25.33;46.90
67457;BME280;54319;52.038;4.640;2022-07-24T09:25:49;101871.38;;;25.51;47.56
67457;BME280;54319;52.038;4.640;2022-07-24T09:28:17;101869.97;;;25.60;46.45
67457;BME280;54319;52.038;4.640;2022-07-24T09:30:46;101878.63;;;25.65;46.62
67457;BME280;54319;52.038;4.640;2022-07-24T09:33:16;101874.66;;;25.56;46.61
67457;BME280;54319;52.038;4.640;2022-07-24T09:35:44;101882.63;;;25.42;47.07
67457;BME280;54319;52.038;4.640;2022-07-24T09:38:15;101868.63;;;25.37;47.65
67457;BME280;54319;52.038;4.640;2022-07-24T09:40:43;101877.94;;;25.61;47.50
67457;BME280;54319;52.038;4.640;2022-07-24T09:43:29;101874.34;;;25.92;46.69
67457;BME280;54319;52.038;4.640;2022-07-24T09:45:59;101862.31;;;26.14;46.57
67457;BME280;54319;52.038;4.640;2022-07-24T09:48:29;101871.06;;;26.32;45.66
67457;BME280;54319;52.038;4.640;2022-07-24T09:50:57;101872.28;;;26.12;45.83
67457;BME280;54319;52.038;4.640;2022-07-24T09:53:28;101867.59;;;26.30;46.27
67457;BME280;54319;52.038;4.640;2022-07-24T09:55:59;101875.50;;;26.33;45.59
67457;BME280;54319;52.038;4.640;2022-07-24T09:58:28;101873.56;;;26.35;45.72
67457;BME280;54319;52.038;4.640;2022-07-24T10:00:56;101868.38;;;26.32;45.92
67457;BME280;54319;52.038;4.640;2022-07-24T10:03:26;101856.59;;;26.49;45.37
67457;BME280;54319;52.038;4.640;2022-07-24T10:05:55;101856.41;;;26.38;45.46
67457;BME280;54319;52.038;4.640;2022-07-24T10:08:23;101862.28;;;26.73;45.50
67457;BME280;54319;52.038;4.640;2022-07-24T10:10:52;101870.44;;;26.57;44.75
67457;BME280;54319;52.038;4.640;2022-07-24T10:13:20;101857.44;;;26.49;45.07
67457;BME280;54319;52.038;4.640;2022-07-24T10:15:52;101856.91;;;26.59;44.89
67457;BME280;54319;52.038;4.640;2022-07-24T10:18:21;101857.28;;;26.52;44.36
67457;BME280;54319;52.038;4.640;2022-07-24T10:20:51;101846.41;;;26.25;45.10
67457;BME280;54319;52.038;4.640;2022-07-24T10:23:27;101843.56;;;26.71;45.14
67457;BME280;54319;52.038;4.640;2022-07-24T10:26:06;101848.16;;;26.84;43.98
67457;BME280;54319;52.038;4.640;2022-07-24T10:28:39;101846.09;;;27.02;43.98
67457;BME280;54319;52.038;4.640;2022-07-24T10:31:07;101838.75;;;27.18;43.78
67457;BME280;54319;52.038;4.640;2022-07-24T10:33:37;101845.66;;;27.36;42.79
67457;BME280;54319;52.038;4.640;2022-07-24T10:36:14;101860.69;;;27.53;42.48
67457;BME280;54319;52.038;4.640;2022-07-24T10:38:50;101841.00;;;27.66;41.83
67457;BME280;54319;52.038;4.640;2022-07-24T10:41:24;101842.38;;;27.86;41.35
67457;BME280;54319;52.038;4.640;2022-07-24T10:44:16;101837.84;;;27.86;41.05
67457;BME280;54319;52.038;4.640;2022-07-24T10:47:05;101836.34;;;27.95;40.75
67457;BME280;54319;52.038;4.640;2022-07-24T10:49:44;101840.13;;;27.92;40.31
67457;BME280;54319;52.038;4.640;2022-07-24T10:52:21;101839.94;;;27.68;41.46
67457;BME280;54319;52.038;4.640;2022-07-24T10:54:48;101826.16;;;27.73;41.19
67457;BME280;54319;52.038;4.640;2022-07-24T10:57:17;101824.72;;;27.54;40.78
67457;BME280;54319;52.038;4.640;2022-07-24T10:59:44;101829.16;;;27.68;41.29
67457;BME280;54319;52.038;4.640;2022-07-24T11:02:25;101829.47;;;27.91;41.47
67457;BME280;54319;52.038;4.640;2022-07-24T11:05:27;101838.41;;;28.30;39.88
67457;BME280;54319;52.038;4.640;2022-07-24T11:11:06;101831.84;;;28.08;40.33
67457;BME280;54319;52.038;4.640;2022-07-24T11:13:51;101820.72;;;28.38;40.25
67457;BME280;54319;52.038;4.640;2022-07-24T11:16:24;101822.34;;;28.67;39.82
67457;BME280;54319;52.038;4.640;2022-07-24T11:19:27;101830.09;;;28.71;39.92
67457;BME280;54319;52.038;4.640;2022-07-24T11:22:08;101814.19;;;28.92;40.14
67457;BME280;54319;52.038;4.640;2022-07-24T11:24:39;101823.59;;;28.74;39.63
67457;BME280;54319;52.038;4.640;2022-07-24T11:27:13;101821.91;;;28.73;40.19
67457;BME280;54319;52.038;4.640;2022-07-24T11:29:42;101816.06;;;28.79;39.72
67457;BME280;54319;52.038;4.640;2022-07-24T11:32:11;101810.47;;;29.06;38.62
67457;BME280;54319;52.038;4.640;2022-07-24T11:34:43;101818.94;;;29.26;39.24
67457;BME280;54319;52.038;4.640;2022-07-24T11:37:11;101813.16;;;29.19;38.66
67457;BME280;54319;52.038;4.640;2022-07-24T11:39:40;101808.94;;;29.39;38.57
67457;BME280;54319;52.038;4.640;2022-07-24T11:42:09;101811.25;;;29.32;37.89
67457;BME280;54319;52.038;4.640;2022-07-24T11:44:38;101802.59;;;29.16;38.32
67457;BME280;54319;52.038;4.640;2022-07-24T11:47:09;101802.81;;;29.13;38.75
67457;BME280;54319;52.038;4.640;2022-07-24T11:49:40;101796.97;;;29.19;38.61
67457;BME280;54319;52.038;4.640;2022-07-24T11:52:14;101796.06;;;28.94;39.05
67457;BME280;54319;52.038;4.640;2022-07-24T11:54:40;101785.34;;;29.06;38.87
67457;BME280;54319;52.038;4.640;2022-07-24T11:57:19;101785.00;;;29.34;38.83
67457;BME280;54319;52.038;4.640;2022-07-24T11:59:48;101782.41;;;29.33;38.77
67457;BME280;54319;52.038;4.640;2022-07-24T12:02:17;101772.72;;;29.30;38.70
67457;BME280;54319;52.038;4.640;2022-07-24T12:04:45;101781.38;;;29.71;38.47
67457;BME280;54319;52.038;4.640;2022-07-24T12:07:14;101775.75;;;29.61;37.83
67457;BME280;54319;52.038;4.640;2022-07-24T12:09:46;101760.84;;;29.79;37.57
67457;BME280;54319;52.038;4.640;2022-07-24T12:12:18;101769.13;;;29.54;38.34
67457;BME280;54319;52.038;4.640;2022-07-24T12:14:46;101773.28;;;29.47;39.49
67457;BME280;54319;52.038;4.640;2022-07-24T12:17:13;101770.81;;;29.79;37.62
67457;BME280;54319;52.038;4.640;2022-07-24T12:19:50;101771.84;;;29.65;38.00
67457;BME280;54319;52.038;4.640;2022-07-24T12:22:18;101766.25;;;29.79;38.29
67457;BME280;54319;52.038;4.640;2022-07-24T12:24:46;101762.34;;;29.83;37.53
67457;BME280;54319;52.038;4.640;2022-07-24T12:27:31;101755.25;;;30.05;37.32
67457;BME280;54319;52.038;4.640;2022-07-24T12:29:58;101764.34;;;29.93;38.20
67457;BME280;54319;52.038;4.640;2022-07-24T12:32:25;101752.91;;;29.89;37.47
67457;BME280;54319;52.038;4.640;2022-07-24T12:34:54;101747.88;;;30.18;37.46
67457;BME280;54319;52.038;4.640;2022-07-24T12:37:22;101754.13;;;30.08;36.74
67457;BME280;54319;52.038;4.640;2022-07-24T12:39:50;101744.69;;;29.91;38.63
67457;BME280;54319;52.038;4.640;2022-07-24T12:42:20;101738.53;;;29.89;38.14
67457;BME280;54319;52.038;4.640;2022-07-24T12:45:05;101740.25;;;30.12;38.07
67457;BME280;54319;52.038;4.640;2022-07-24T12:47:33;101739.94;;;30.28;37.50
67457;BME280;54319;52.038;4.640;2022-07-24T12:50:11;101740.59;;;30.75;36.74
67457;BME280;54319;52.038;4.640;2022-07-24T12:52:40;101724.50;;;30.62;36.69
67457;BME280;54319;52.038;4.640;2022-07-24T12:55:19;101728.78;;;30.65;36.93
67457;BME280;54319;52.038;4.640;2022-07-24T12:57:46;101726.59;;;30.70;36.91
67457;BME280;54319;52.038;4.640;2022-07-24T13:00:13;101726.28;;;30.52;36.50
67457;BME280;54319;52.038;4.640;2022-07-24T13:02:40;101732.16;;;30.57;36.42